sensor_id;sensor_type;location;lat;lon;timestamp;temperature;humidity
53314;DHT22;39202;51.468;7.146;2023-10-08T00:05:21;26.80;44.80
53314;DHT22;39202;51.468;7.146;2023-10-08T00:10:23;26.80;45.50
53314;DHT22;39202;51.468;7.146;2023-10-08T00:15:28;26.80;44.80
53314;DHT22;39202;51.468;7.146;2023-10-08T00:20:34;26.80;44.80
53314;DHT22;39202;51.468;7.146;2023-10-08T00:25:44;26.80;44.80
53314;DHT22;39202;51.468;7.146;2023-10-08T00:30:49;26.80;44.80
53314;DHT22;39202;51.468;7.146;2023-10-08T00:35:50;26.80;44.80
53314;DHT22;39202;51.468;7.146;2023-10-08T00:40:52;26.70;44.70
53314;DHT22;39202;51.468;7.146;2023-10-08T00:45:57;26.80;44.80
53314;DHT22;39202;51.468;7.146;2023-10-08T00:51:01;26.80;44.80
53314;DHT22;39202;51.468;7.146;2023-10-08T00:56:17;26.80;44.80
53314;DHT22;39202;51.468;7.146;2023-10-08T01:01:21;26.70;44.80
53314;DHT22;39202;51.468;7.146;2023-10-08T01:06:23;26.80;44.90
53314;DHT22;39202;51.468;7.146;2023-10-08T01:11:30;26.70;44.80
53314;DHT22;39202;51.468;7.146;2023-10-08T01:16:41;26.80;44.80
53314;DHT22;39202;51.468;7.146;2023-10-08T01:21:47;26.70;44.80
53314;DHT22;39202;51.468;7.146;2023-10-08T01:26:50;26.70;44.80
53314;DHT22;39202;51.468;7.146;2023-10-08T01:31:52;26.70;44.80
53314;DHT22;39202;51.468;7.146;2023-10-08T01:36:54;26.70;44.80
53314;DHT22;39202;51.468;7.146;2023-10-08T01:42:01;26.70;44.80
53314;DHT22;39202;51.468;7.146;2023-10-08T01:47:05;26.60;44.80
53314;DHT22;39202;51.468;7.146;2023-10-08T01:52:07;26.70;44.80
53314;DHT22;39202;51.468;7.146;2023-10-08T01:57:15;26.70;44.80
53314;DHT22;39202;51.468;7.146;2023-10-08T02:02:17;26.70;44.80
53314;DHT22;39202;51.468;7.146;2023-10-08T02:07:19;26.70;44.90
53314;DHT22;39202;51.468;7.146;2023-10-08T02:12:23;26.70;44.80
53314;DHT22;39202;51.468;7.146;2023-10-08T02:17:25;26.70;44.80
53314;DHT22;39202;51.468;7.146;2023-10-08T02:22:28;26.70;44.80
53314;DHT22;39202;51.468;7.146;2023-10-08T02:27:32;26.70;44.80
53314;DHT22;39202;51.468;7.146;2023-10-08T02:32:34;26.70;44.80
53314;DHT22;39202;51.468;7.146;2023-10-08T02:37:37;26.60;44.80
53314;DHT22;39202;51.468;7.146;2023-10-08T02:42:41;26.70;44.80
53314;DHT22;39202;51.468;7.146;2023-10-08T02:47:44;26.60;44.80
53314;DHT22;39202;51.468;7.146;2023-10-08T02:52:46;26.70;44.80
53314;DHT22;39202;51.468;7.146;2023-10-08T02:57:50;26.70;44.80
53314;DHT22;39202;51.468;7.146;2023-10-08T03:02:52;26.70;44.80
53314;DHT22;39202;51.468;7.146;2023-10-08T03:07:54;26.70;44.90
53314;DHT22;39202;51.468;7.146;2023-10-08T03:12:59;26.60;44.80
53314;DHT22;39202;51.468;7.146;2023-10-08T03:18:06;26.70;44.90
53314;DHT22;39202;51.468;7.146;2023-10-08T03:23:15;26.70;44.90
53314;DHT22;39202;51.468;7.146;2023-10-08T03:28:35;26.60;44.80
53314;DHT22;39202;51.468;7.146;2023-10-08T03:33:37;26.70;44.80
53314;DHT22;39202;51.468;7.146;2023-10-08T03:38:40;26.60;44.80
53314;DHT22;39202;51.468;7.146;2023-10-08T03:43:53;26.60;44.80
53314;DHT22;39202;51.468;7.146;2023-10-08T03:49:01;26.60;44.80
53314;DHT22;39202;51.468;7.146;2023-10-08T03:54:06;26.60;45.40
53314;DHT22;39202;51.468;7.146;2023-10-08T03:59:17;26.70;44.80
53314;DHT22;39202;51.468;7.146;2023-10-08T04:04:30;26.60;44.80
53314;DHT22;39202;51.468;7.146;2023-10-08T04:09:49;26.60;44.80
53314;DHT22;39202;51.468;7.146;2023-10-08T04:15:01;26.70;44.90
53314;DHT22;39202;51.468;7.146;2023-10-08T04:20:09;26.60;44.80
53314;DHT22;39202;51.468;7.146;2023-10-08T04:25:32;26.60;44.80
53314;DHT22;39202;51.468;7.146;2023-10-08T04:30:36;26.60;44.80
53314;DHT22;39202;51.468;7.146;2023-10-08T04:35:41;26.60;44.80
53314;DHT22;39202;51.468;7.146;2023-10-08T04:40:48;27.40;45.20
53314;DHT22;39202;51.468;7.146;2023-10-08T04:45:53;26.60;44.80
53314;DHT22;39202;51.468;7.146;2023-10-08T04:50:57;26.60;44.80
53314;DHT22;39202;51.468;7.146;2023-10-08T04:56:05;26.60;44.80
53314;DHT22;39202;51.468;7.146;2023-10-08T05:01:08;26.60;44.80
53314;DHT22;39202;51.468;7.146;2023-10-08T05:06:19;26.60;44.80
53314;DHT22;39202;51.468;7.146;2023-10-08T05:11:40;26.60;44.80
53314;DHT22;39202;51.468;7.146;2023-10-08T05:17:08;26.60;44.80
53314;DHT22;39202;51.468;7.146;2023-10-08T05:22:23;26.60;44.80
53314;DHT22;39202;51.468;7.146;2023-10-08T05:27:46;26.60;44.80
53314;DHT22;39202;51.468;7.146;2023-10-08T05:33:07;26.60;44.80
53314;DHT22;39202;51.468;7.146;2023-10-08T05:38:24;26.60;44.80
53314;DHT22;39202;51.468;7.146;2023-10-08T05:43:45;26.60;44.80
53314;DHT22;39202;51.468;7.146;2023-10-08T05:48:58;26.60;44.80
53314;DHT22;39202;51.468;7.146;2023-10-08T05:54:03;26.60;44.80
53314;DHT22;39202;51.468;7.146;2023-10-08T05:59:25;26.60;44.80
53314;DHT22;39202;51.468;7.146;2023-10-08T06:04:40;26.60;44.80
53314;DHT22;39202;51.468;7.146;2023-10-08T06:09:54;26.60;44.80
53314;DHT22;39202;51.468;7.146;2023-10-08T06:15:06;26.60;44.80
53314;DHT22;39202;51.468;7.146;2023-10-08T06:20:11;26.60;44.80
53314;DHT22;39202;51.468;7.146;2023-10-08T06:25:17;26.60;44.80
53314;DHT22;39202;51.468;7.146;2023-10-08T06:30:24;26.60;44.80
53314;DHT22;39202;51.468;7.146;2023-10-08T06:35:30;26.60;44.80
53314;DHT22;39202;51.468;7.146;2023-10-08T06:40:34;26.60;44.80
53314;DHT22;39202;51.468;7.146;2023-10-08T06:45:43;26.50;44.70
53314;DHT22;39202;51.468;7.146;2023-10-08T06:50:47;26.60;44.80
53314;DHT22;39202;51.468;7.146;2023-10-08T06:55:49;26.60;44.80
53314;DHT22;39202;51.468;7.146;2023-10-08T07:00:56;26.60;44.80
53314;DHT22;39202;51.468;7.146;2023-10-08T07:06:00;26.50;44.80
53314;DHT22;39202;51.468;7.146;2023-10-08T07:11:03;26.60;44.80
53314;DHT22;39202;51.468;7.146;2023-10-08T07:16:07;26.50;44.80
53314;DHT22;39202;51.468;7.146;2023-10-08T07:21:13;26.50;44.80
53314;DHT22;39202;51.468;7.146;2023-10-08T07:26:15;26.50;44.80
53314;DHT22;39202;51.468;7.146;2023-10-08T07:31:20;26.50;44.80
53314;DHT22;39202;51.468;7.146;2023-10-08T07:36:24;26.50;44.80
53314;DHT22;39202;51.468;7.146;2023-10-08T07:41:27;26.50;44.80
53314;DHT22;39202;51.468;7.146;2023-10-08T07:46:30;26.50;44.80
53314;DHT22;39202;51.468;7.146;2023-10-08T07:51:34;26.50;44.80
53314;DHT22;39202;51.468;7.146;2023-10-08T07:56:38;26.50;44.80
53314;DHT22;39202;51.468;7.146;2023-10-08T08:01:39;26.50;44.80
53314;DHT22;39202;51.468;7.146;2023-10-08T08:06:43;26.50;44.80
53314;DHT22;39202;51.468;7.146;2023-10-08T08:11:46;26.50;44.80
53314;DHT22;39202;51.468;7.146;2023-10-08T08:16:48;26.50;44.80
53314;DHT22;39202;51.468;7.146;2023-10-08T08:21:51;26.50;44.80
53314;DHT22;39202;51.468;7.146;2023-10-08T08:26:53;26.50;44.80
53314;DHT22;39202;51.468;7.146;2023-10-08T08:32:08;26.50;44.80
53314;DHT22;39202;51.468;7.146;2023-10-08T08:37:14;26.50;44.80
53314;DHT22;39202;51.468;7.146;2023-10-08T08:42:20;26.50;44.80
53314;DHT22;39202;51.468;7.146;2023-10-08T08:47:23;26.50;44.80
53314;DHT22;39202;51.468;7.146;2023-10-08T08:52:26;26.50;44.80
53314;DHT22;39202;51.468;7.146;2023-10-08T08:57:28;26.50;44.80
53314;DHT22;39202;51.468;7.146;2023-10-08T09:02:31;26.50;44.80
53314;DHT22;39202;51.468;7.146;2023-10-08T09:07:35;26.50;44.80
53314;DHT22;39202;51.468;7.146;2023-10-08T09:12:36;26.50;44.80
53314;DHT22;39202;51.468;7.146;2023-10-08T09:17:39;26.60;44.90
53314;DHT22;39202;51.468;7.146;2023-10-08T09:22:42;26.60;45.00
53314;DHT22;39202;51.468;7.146;2023-10-08T09:27:44;26.60;45.10
53314;DHT22;39202;51.468;7.146;2023-10-08T09:32:47;26.50;45.10
53314;DHT22;39202;51.468;7.146;2023-10-08T09:37:51;27.70;45.90
53314;DHT22;39202;51.468;7.146;2023-10-08T09:42:55;26.50;45.20
53314;DHT22;39202;51.468;7.146;2023-10-08T09:47:57;26.50;45.20
53314;DHT22;39202;51.468;7.146;2023-10-08T09:53:07;26.50;45.20
53314;DHT22;39202;51.468;7.146;2023-10-08T09:58:17;26.40;45.20
53314;DHT22;39202;51.468;7.146;2023-10-08T10:03:18;26.40;45.20
53314;DHT22;39202;51.468;7.146;2023-10-08T10:08:22;26.40;45.20
53314;DHT22;39202;51.468;7.146;2023-10-08T10:13:28;26.40;45.20
53314;DHT22;39202;51.468;7.146;2023-10-08T10:18:30;26.40;45.30
53314;DHT22;39202;51.468;7.146;2023-10-08T10:23:37;26.40;45.30
53314;DHT22;39202;51.468;7.146;2023-10-08T10:28:40;26.40;45.40
53314;DHT22;39202;51.468;7.146;2023-10-08T10:33:42;26.40;45.40
53314;DHT22;39202;51.468;7.146;2023-10-08T10:38:48;26.40;45.40
53314;DHT22;39202;51.468;7.146;2023-10-08T10:43:50;26.40;45.40
53314;DHT22;39202;51.468;7.146;2023-10-08T10:48:53;26.40;45.40
53314;DHT22;39202;51.468;7.146;2023-10-08T10:54:09;26.40;45.40
53314;DHT22;39202;51.468;7.146;2023-10-08T10:59:11;26.40;45.40
53314;DHT22;39202;51.468;7.146;2023-10-08T11:04:19;26.40;45.30
53314;DHT22;39202;51.468;7.146;2023-10-08T11:09:23;26.50;45.40
53314;DHT22;39202;51.468;7.146;2023-10-08T11:14:37;26.50;45.40
53314;DHT22;39202;51.468;7.146;2023-10-08T11:19:42;26.50;45.40
53314;DHT22;39202;51.468;7.146;2023-10-08T11:24:48;26.40;45.30
53314;DHT22;39202;51.468;7.146;2023-10-08T11:29:55;26.50;45.30
53314;DHT22;39202;51.468;7.146;2023-10-08T11:34:58;26.50;45.30
53314;DHT22;39202;51.468;7.146;2023-10-08T11:40:02;26.50;45.30
53314;DHT22;39202;51.468;7.146;2023-10-08T11:45:16;26.50;45.30
53314;DHT22;39202;51.468;7.146;2023-10-08T11:50:25;26.60;45.30
53314;DHT22;39202;51.468;7.146;2023-10-08T11:55:34;26.60;45.30
53314;DHT22;39202;51.468;7.146;2023-10-08T12:00:39;26.60;45.30
53314;DHT22;39202;51.468;7.146;2023-10-08T12:05:45;26.60;45.30
53314;DHT22;39202;51.468;7.146;2023-10-08T12:10:50;26.50;45.30
53314;DHT22;39202;51.468;7.146;2023-10-08T12:15:55;26.50;45.20
53314;DHT22;39202;51.468;7.146;2023-10-08T12:21:06;26.50;45.20
53314;DHT22;39202;51.468;7.146;2023-10-08T12:26:12;26.60;45.30
53314;DHT22;39202;51.468;7.146;2023-10-08T12:31:16;26.60;45.30
53314;DHT22;39202;51.468;7.146;2023-10-08T12:36:22;26.60;45.20
53314;DHT22;39202;51.468;7.146;2023-10-08T12:41:26;26.60;45.20
53314;DHT22;39202;51.468;7.146;2023-10-08T12:46:28;26.60;45.20
53314;DHT22;39202;51.468;7.146;2023-10-08T12:51:31;26.60;45.20
53314;DHT22;39202;51.468;7.146;2023-10-08T12:56:35;26.60;45.20
53314;DHT22;39202;51.468;7.146;2023-10-08T13:01:40;26.60;45.20
53314;DHT22;39202;51.468;7.146;2023-10-08T13:06:44;26.60;45.20
53314;DHT22;39202;51.468;7.146;2023-10-08T13:11:48;26.60;45.10
53314;DHT22;39202;51.468;7.146;2023-10-08T13:16:50;26.60;45.10
53314;DHT22;39202;51.468;7.146;2023-10-08T13:21:54;26.60;45.10
53314;DHT22;39202;51.468;7.146;2023-10-08T13:26:57;26.60;45.10
53314;DHT22;39202;51.468;7.146;2023-10-08T13:31:59;26.60;45.10
53314;DHT22;39202;51.468;7.146;2023-10-08T13:37:01;26.60;45.10
53314;DHT22;39202;51.468;7.146;2023-10-08T13:42:04;26.70;45.20
53314;DHT22;39202;51.468;7.146;2023-10-08T13:47:07;26.60;45.10
53314;DHT22;39202;51.468;7.146;2023-10-08T13:52:15;26.60;45.10
53314;DHT22;39202;51.468;7.146;2023-10-08T13:57:19;26.60;45.10
53314;DHT22;39202;51.468;7.146;2023-10-08T14:02:21;26.60;45.10
53314;DHT22;39202;51.468;7.146;2023-10-08T14:07:25;26.60;45.10
53314;DHT22;39202;51.468;7.146;2023-10-08T14:12:29;26.60;45.00
53314;DHT22;39202;51.468;7.146;2023-10-08T14:17:35;26.60;45.10
53314;DHT22;39202;51.468;7.146;2023-10-08T14:22:48;26.60;45.10
53314;DHT22;39202;51.468;7.146;2023-10-08T14:27:59;26.60;45.10
53314;DHT22;39202;51.468;7.146;2023-10-08T14:33:05;26.60;45.00
53314;DHT22;39202;51.468;7.146;2023-10-08T14:38:09;26.60;45.00
53314;DHT22;39202;51.468;7.146;2023-10-08T14:43:30;26.60;45.00
53314;DHT22;39202;51.468;7.146;2023-10-08T14:48:34;26.60;45.00
53314;DHT22;39202;51.468;7.146;2023-10-08T14:53:36;26.60;45.00
53314;DHT22;39202;51.468;7.146;2023-10-08T14:58:40;26.60;45.00
53314;DHT22;39202;51.468;7.146;2023-10-08T15:03:42;26.60;45.00
53314;DHT22;39202;51.468;7.146;2023-10-08T15:08:45;26.60;45.00
53314;DHT22;39202;51.468;7.146;2023-10-08T15:13:48;26.60;45.00
53314;DHT22;39202;51.468;7.146;2023-10-08T15:18:54;26.60;45.00
53314;DHT22;39202;51.468;7.146;2023-10-08T15:23:57;26.60;45.10
53314;DHT22;39202;51.468;7.146;2023-10-08T15:29:00;26.60;45.10
53314;DHT22;39202;51.468;7.146;2023-10-08T15:34:03;26.60;45.30
53314;DHT22;39202;51.468;7.146;2023-10-08T15:39:05;26.60;45.30
53314;DHT22;39202;51.468;7.146;2023-10-08T15:44:11;26.60;45.40
53314;DHT22;39202;51.468;7.146;2023-10-08T15:49:13;26.60;45.50
53314;DHT22;39202;51.468;7.146;2023-10-08T15:54:15;26.60;45.50
53314;DHT22;39202;51.468;7.146;2023-10-08T15:59:22;26.70;45.60
53314;DHT22;39202;51.468;7.146;2023-10-08T16:04:24;26.60;45.50
53314;DHT22;39202;51.468;7.146;2023-10-08T16:09:28;26.70;45.60
53314;DHT22;39202;51.468;7.146;2023-10-08T16:14:31;26.70;45.70
53314;DHT22;39202;51.468;7.146;2023-10-08T16:19:33;26.60;45.70
53314;DHT22;39202;51.468;7.146;2023-10-08T16:24:37;26.70;45.70
53314;DHT22;39202;51.468;7.146;2023-10-08T16:29:40;26.80;45.70
53314;DHT22;39202;51.468;7.146;2023-10-08T16:34:42;26.70;45.70
53314;DHT22;39202;51.468;7.146;2023-10-08T16:39:44;26.70;45.70
53314;DHT22;39202;51.468;7.146;2023-10-08T16:44:48;26.70;45.70
53314;DHT22;39202;51.468;7.146;2023-10-08T16:49:50;26.70;45.80
53314;DHT22;39202;51.468;7.146;2023-10-08T16:54:52;26.70;45.80
53314;DHT22;39202;51.468;7.146;2023-10-08T16:59:55;26.70;45.80
53314;DHT22;39202;51.468;7.146;2023-10-08T17:04:58;26.70;45.80
53314;DHT22;39202;51.468;7.146;2023-10-08T17:10:00;26.70;45.80
53314;DHT22;39202;51.468;7.146;2023-10-08T17:15:03;26.70;45.80
53314;DHT22;39202;51.468;7.146;2023-10-08T17:20:07;26.80;45.90
53314;DHT22;39202;51.468;7.146;2023-10-08T17:25:10;26.70;45.90
53314;DHT22;39202;51.468;7.146;2023-10-08T17:30:14;26.80;45.90
53314;DHT22;39202;51.468;7.146;2023-10-08T17:35:20;26.80;45.90
53314;DHT22;39202;51.468;7.146;2023-10-08T17:40:21;26.90;46.00
53314;DHT22;39202;51.468;7.146;2023-10-08T17:45:26;26.80;45.90
53314;DHT22;39202;51.468;7.146;2023-10-08T17:50:35;26.90;46.00
53314;DHT22;39202;51.468;7.146;2023-10-08T17:55:38;26.90;45.90
53314;DHT22;39202;51.468;7.146;2023-10-08T18:00:41;26.90;46.00
53314;DHT22;39202;51.468;7.146;2023-10-08T18:05:44;26.80;45.90
53314;DHT22;39202;51.468;7.146;2023-10-08T18:10:46;26.80;45.90
53314;DHT22;39202;51.468;7.146;2023-10-08T18:15:49;26.80;46.00
53314;DHT22;39202;51.468;7.146;2023-10-08T18:20:51;26.80;46.00
53314;DHT22;39202;51.468;7.146;2023-10-08T18:25:54;26.90;46.00
53314;DHT22;39202;51.468;7.146;2023-10-08T18:30:58;26.90;45.90
53314;DHT22;39202;51.468;7.146;2023-10-08T18:36:04;26.90;46.00
53314;DHT22;39202;51.468;7.146;2023-10-08T18:41:06;26.90;45.80
53314;DHT22;39202;51.468;7.146;2023-10-08T18:46:09;26.90;45.80
53314;DHT22;39202;51.468;7.146;2023-10-08T18:51:13;26.90;45.90
53314;DHT22;39202;51.468;7.146;2023-10-08T18:56:15;26.90;45.90
53314;DHT22;39202;51.468;7.146;2023-10-08T19:01:18;26.90;45.90
53314;DHT22;39202;51.468;7.146;2023-10-08T19:06:20;26.90;45.90
53314;DHT22;39202;51.468;7.146;2023-10-08T19:11:22;26.90;45.90
53314;DHT22;39202;51.468;7.146;2023-10-08T19:16:26;26.90;45.90
53314;DHT22;39202;51.468;7.146;2023-10-08T19:21:27;26.90;45.90
53314;DHT22;39202;51.468;7.146;2023-10-08T19:26:29;26.90;45.90
53314;DHT22;39202;51.468;7.146;2023-10-08T19:31:32;26.90;45.80
53314;DHT22;39202;51.468;7.146;2023-10-08T19:36:34;26.90;45.90
53314;DHT22;39202;51.468;7.146;2023-10-08T19:41:36;26.90;45.90
53314;DHT22;39202;51.468;7.146;2023-10-08T19:46:39;26.80;45.80
53314;DHT22;39202;51.468;7.146;2023-10-08T19:51:41;26.90;45.90
53314;DHT22;39202;51.468;7.146;2023-10-08T19:56:43;26.90;45.80
53314;DHT22;39202;51.468;7.146;2023-10-08T20:01:46;26.90;45.80
53314;DHT22;39202;51.468;7.146;2023-10-08T20:06:48;26.80;45.70
53314;DHT22;39202;51.468;7.146;2023-10-08T20:11:53;26.60;45.70
53314;DHT22;39202;51.468;7.146;2023-10-08T20:16:56;26.80;45.80
53314;DHT22;39202;51.468;7.146;2023-10-08T20:21:58;26.80;45.90
53314;DHT22;39202;51.468;7.146;2023-10-08T20:27:00;26.70;45.80
53314;DHT22;39202;51.468;7.146;2023-10-08T20:32:04;26.80;45.80
53314;DHT22;39202;51.468;7.146;2023-10-08T20:37:08;26.70;45.70
53314;DHT22;39202;51.468;7.146;2023-10-08T20:42:11;26.70;45.70
53314;DHT22;39202;51.468;7.146;2023-10-08T20:47:17;26.70;45.70
53314;DHT22;39202;51.468;7.146;2023-10-08T20:52:19;26.60;45.70
53314;DHT22;39202;51.468;7.146;2023-10-08T20:57:21;26.70;45.80
53314;DHT22;39202;51.468;7.146;2023-10-08T21:02:24;26.70;45.70
53314;DHT22;39202;51.468;7.146;2023-10-08T21:07:28;26.70;45.80
53314;DHT22;39202;51.468;7.146;2023-10-08T21:12:30;26.60;45.70
53314;DHT22;39202;51.468;7.146;2023-10-08T21:17:34;26.60;45.70
53314;DHT22;39202;51.468;7.146;2023-10-08T21:22:36;26.60;45.70
53314;DHT22;39202;51.468;7.146;2023-10-08T21:27:40;26.60;45.70
53314;DHT22;39202;51.468;7.146;2023-10-08T21:32:43;26.60;45.70
53314;DHT22;39202;51.468;7.146;2023-10-08T21:37:46;26.60;45.70
53314;DHT22;39202;51.468;7.146;2023-10-08T21:42:49;26.60;45.70
53314;DHT22;39202;51.468;7.146;2023-10-08T21:47:53;26.50;45.70
53314;DHT22;39202;51.468;7.146;2023-10-08T21:52:55;26.60;45.80
53314;DHT22;39202;51.468;7.146;2023-10-08T21:57:58;26.50;45.70
53314;DHT22;39202;51.468;7.146;2023-10-08T22:03:01;26.50;45.70
53314;DHT22;39202;51.468;7.146;2023-10-08T22:08:07;26.50;45.70
53314;DHT22;39202;51.468;7.146;2023-10-08T22:13:13;26.50;45.70
53314;DHT22;39202;51.468;7.146;2023-10-08T22:18:19;26.50;45.70
53314;DHT22;39202;51.468;7.146;2023-10-08T22:23:27;26.40;45.60
53314;DHT22;39202;51.468;7.146;2023-10-08T22:28:29;26.40;45.70
53314;DHT22;39202;51.468;7.146;2023-10-08T22:33:32;26.40;45.60
53314;DHT22;39202;51.468;7.146;2023-10-08T22:38:34;26.40;45.70
53314;DHT22;39202;51.468;7.146;2023-10-08T22:43:37;26.40;45.60
53314;DHT22;39202;51.468;7.146;2023-10-08T22:48:41;26.40;45.70
53314;DHT22;39202;51.468;7.146;2023-10-08T22:53:50;26.30;45.60
53314;DHT22;39202;51.468;7.146;2023-10-08T22:58:53;26.30;45.70
53314;DHT22;39202;51.468;7.146;2023-10-08T23:03:56;26.30;45.60
53314;DHT22;39202;51.468;7.146;2023-10-08T23:09:02;26.30;45.70
53314;DHT22;39202;51.468;7.146;2023-10-08T23:14:04;26.30;45.60
53314;DHT22;39202;51.468;7.146;2023-10-08T23:19:07;26.30;45.60
53314;DHT22;39202;51.468;7.146;2023-10-08T23:24:11;26.30;45.60
53314;DHT22;39202;51.468;7.146;2023-10-08T23:29:13;26.30;45.70
53314;DHT22;39202;51.468;7.146;2023-10-08T23:34:17;26.30;45.70
53314;DHT22;39202;51.468;7.146;2023-10-08T23:39:22;26.30;45.70
53314;DHT22;39202;51.468;7.146;2023-10-08T23:44:25;26.30;45.70
53314;DHT22;39202;51.468;7.146;2023-10-08T23:49:31;26.30;45.60
53314;DHT22;39202;51.468;7.146;2023-10-08T23:54:47;26.20;45.60
53314;DHT22;39202;51.468;7.146;2023-10-08T23:59:57;26.20;45.60
